createdAt,value
2017-03-05T00:00:35.211Z,7.31
2017-03-05T00:02:51.451Z,7.31
2017-03-05T00:03:34.014Z,7.4
2017-03-05T00:04:16.642Z,7.3
2017-03-05T00:04:59.356Z,7.32
2017-03-05T00:05:42.087Z,7.32
2017-03-05T00:06:24.626Z,7.3
2017-03-05T00:07:07.043Z,7.3
2017-03-05T00:07:49.716Z,7.35
2017-03-05T00:08:31.928Z,7.35
2017-03-05T00:09:14.662Z,7.31
2017-03-05T00:09:56.489Z,7.34
2017-03-05T00:10:38.980Z,7.32
2017-03-05T00:12:34.118Z,7.25
2017-03-05T00:13:17.005Z,7.31
2017-03-05T00:13:59.447Z,7.32
2017-03-05T00:14:41.748Z,7.25
2017-03-05T00:15:24.487Z,7.3
2017-03-05T00:16:07.423Z,7.24
2017-03-05T00:16:49.858Z,7.27
2017-03-05T00:17:31.947Z,7.24
2017-03-05T00:18:14.539Z,7.23
2017-03-05T00:20:15.403Z,7.27
2017-03-05T00:20:57.731Z,7.16
2017-03-05T00:22:36.956Z,7.21
2017-03-05T00:23:19.712Z,7.17
2017-03-05T00:24:02.235Z,7.25
2017-03-05T00:26:03.078Z,7.31
2017-03-05T00:26:45.624Z,7.27
2017-03-05T00:27:28.287Z,7.24
2017-03-05T00:28:10.976Z,7.2
2017-03-05T00:28:53.422Z,7.32
2017-03-05T00:29:36.076Z,7.21
2017-03-05T00:30:18.339Z,7.28
2017-03-05T00:31:01.053Z,7.23
2017-03-05T00:33:17.437Z,7.21
2017-03-05T00:34:00.263Z,7.28
2017-03-05T00:34:43.061Z,7.28
2017-03-05T00:35:25.803Z,7.27
2017-03-05T00:36:07.955Z,7.17
2017-03-05T00:38:24.080Z,7.2
2017-03-05T00:39:06.930Z,7.17
2017-03-05T00:39:49.673Z,7.17
2017-03-05T00:40:31.787Z,7.24
2017-03-05T00:41:14.137Z,7.13
2017-03-05T00:41:56.610Z,7.24
2017-03-05T00:42:39.431Z,7.13
2017-03-05T00:43:21.737Z,7.17
2017-03-05T00:44:04.217Z,7.15
2017-03-05T00:44:46.495Z,7.17
2017-03-05T00:45:29.008Z,7.24
2017-03-05T00:46:11.985Z,7.25
2017-03-05T00:46:54.472Z,7.27
2017-03-05T00:47:36.861Z,7.15
2017-03-05T00:48:19.376Z,7.25
2017-03-05T00:49:02.107Z,7.27
2017-03-05T00:49:44.834Z,7.25
2017-03-05T00:50:27.558Z,7.17
2017-03-05T00:51:09.903Z,7.15
2017-03-05T00:51:52.451Z,7.17
2017-03-05T00:52:35.064Z,7.21
2017-03-05T00:53:17.606Z,7.2
2017-03-05T00:54:00.009Z,7.1
2017-03-05T00:54:44.306Z,7.15
2017-03-05T00:55:26.746Z,7.2
2017-03-05T00:56:09.439Z,7.2
2017-03-05T00:56:51.552Z,7.27
2017-03-05T00:57:34.252Z,7.2
2017-03-05T00:58:17.213Z,7.2
2017-03-05T00:59:00.128Z,7.1
2017-03-05T00:59:42.909Z,7.15
2017-03-05T01:00:25.102Z,7.1
2017-03-05T01:01:07.884Z,7.16
2017-03-05T01:01:50.320Z,7.17
2017-03-05T01:02:32.926Z,7.15
2017-03-05T01:03:15.364Z,7.15
2017-03-05T01:03:57.867Z,7.17
2017-03-05T01:04:40.038Z,7.16
2017-03-05T01:05:23.106Z,7.24
2017-03-05T01:06:05.618Z,7.13
2017-03-05T01:07:55.470Z,7.17
2017-03-05T01:08:37.929Z,7.16
2017-03-05T01:10:17.084Z,7.15
2017-03-05T01:10:59.506Z,7.17
2017-03-05T01:11:41.793Z,7.15
2017-03-05T01:13:58.033Z,7.1
2017-03-05T01:14:40.070Z,7.17
2017-03-05T01:16:35.493Z,7.13
2017-03-05T01:17:17.723Z,7.12
2017-03-05T01:18:00.172Z,7.09
2017-03-05T01:20:15.709Z,7.16
2017-03-05T01:22:05.424Z,7.13
2017-03-05T01:22:47.978Z,7.09
2017-03-05T01:23:30.134Z,7.06
2017-03-05T01:24:12.952Z,7.07
2017-03-05T01:24:55.691Z,7.13
2017-03-05T01:25:38.286Z,7.07
2017-03-05T01:26:20.599Z,7.16
2017-03-05T01:27:03.378Z,7.1
2017-03-05T01:27:45.427Z,7.17
2017-03-05T01:28:25.999Z,7.16
2017-03-05T01:29:06.529Z,7.24
2017-03-05T01:29:47.073Z,7.16
2017-03-05T01:30:27.603Z,7.16
2017-03-05T01:31:08.145Z,7.17
2017-03-05T01:31:49.550Z,7.13
2017-03-05T01:32:32.148Z,7.16
2017-03-05T01:33:15.054Z,7.15
2017-03-05T01:35:10.065Z,7.16
2017-03-05T01:35:52.899Z,7.15
2017-03-05T01:36:35.742Z,7.23
2017-03-05T01:37:18.136Z,7.2
2017-03-05T01:38:00.922Z,7.15
2017-03-05T01:39:55.977Z,7.23
2017-03-05T01:40:38.660Z,7.2
2017-03-05T01:41:21.280Z,7.24
2017-03-05T01:42:03.972Z,7.2
2017-03-05T01:42:46.434Z,7.21
2017-03-05T01:43:29.009Z,7.13
2017-03-05T01:44:11.569Z,7.15
2017-03-05T01:44:54.354Z,7.17
2017-03-05T01:45:36.535Z,7.27
2017-03-05T01:47:31.904Z,7.13
2017-03-05T01:48:14.505Z,7.2
2017-03-05T01:48:57.208Z,7.25
2017-03-05T01:49:39.353Z,7.27
2017-03-05T01:50:22.026Z,7.2
2017-03-05T01:52:11.761Z,7.2
2017-03-05T01:52:54.405Z,7.28
2017-03-05T01:53:36.979Z,7.16
2017-03-05T01:54:19.034Z,7.24
2017-03-05T01:55:01.799Z,7.17
2017-03-05T01:55:44.476Z,7.25
2017-03-05T01:56:27.086Z,7.23
2017-03-05T01:57:09.794Z,7.21
2017-03-05T01:57:52.928Z,7.3
2017-03-05T01:58:35.630Z,7.27
2017-03-05T01:59:18.368Z,7.21
2017-03-05T02:01:34.311Z,7.32
2017-03-05T02:02:17.071Z,7.24
2017-03-05T02:02:58.787Z,7.35
2017-03-05T02:03:41.496Z,7.28
2017-03-05T02:04:24.358Z,7.32
2017-03-05T02:06:03.159Z,7.3
2017-03-05T02:06:43.688Z,7.27
2017-03-05T02:07:24.226Z,7.3
2017-03-05T02:08:04.773Z,7.32
2017-03-05T02:08:45.313Z,7.32
2017-03-05T02:09:25.848Z,7.45
2017-03-05T02:10:06.387Z,7.35
2017-03-05T02:10:46.921Z,7.3
2017-03-05T02:11:27.462Z,7.35
2017-03-05T02:12:08.003Z,7.39
2017-03-05T02:12:48.545Z,7.4
2017-03-05T02:13:29.086Z,7.34
2017-03-05T02:14:09.630Z,7.4
2017-03-05T02:14:50.174Z,7.3
2017-03-05T02:15:30.719Z,7.37
2017-03-05T02:16:11.258Z,7.39
2017-03-05T02:16:51.791Z,7.42
2017-03-05T02:17:32.331Z,7.39
2017-03-05T02:18:12.869Z,7.27
2017-03-05T02:18:53.407Z,7.37
2017-03-05T02:19:33.951Z,7.34
2017-03-05T02:20:14.493Z,7.45
2017-03-05T02:20:55.034Z,7.35
2017-03-05T02:21:35.574Z,7.46
2017-03-05T02:22:16.113Z,7.43
2017-03-05T02:22:56.650Z,7.31
2017-03-05T02:23:37.190Z,7.43
2017-03-05T02:24:17.724Z,7.37
2017-03-05T02:24:58.260Z,7.48
2017-03-05T02:25:38.804Z,7.37
2017-03-05T02:26:19.354Z,7.43
2017-03-05T02:26:59.887Z,7.35
2017-03-05T02:27:40.423Z,7.49
2017-03-05T02:28:20.966Z,7.4
2017-03-05T02:29:01.505Z,7.46
2017-03-05T02:29:42.045Z,7.46
2017-03-05T02:30:22.617Z,7.43
2017-03-05T02:31:03.169Z,7.48
2017-03-05T02:31:43.706Z,7.5
2017-03-05T02:32:24.253Z,7.53
2017-03-05T02:33:04.788Z,7.48
2017-03-05T02:33:45.333Z,7.48
2017-03-05T02:34:25.875Z,7.53
2017-03-05T02:35:06.417Z,7.57
2017-03-05T02:35:46.964Z,7.53
2017-03-05T02:36:27.510Z,7.45
2017-03-05T02:37:08.053Z,7.48
2017-03-05T02:37:48.595Z,7.48
2017-03-05T02:38:29.131Z,7.52
2017-03-05T02:39:09.665Z,7.52
2017-03-05T02:39:50.204Z,7.53
2017-03-05T02:40:30.745Z,7.57
2017-03-05T02:41:11.291Z,7.58
2017-03-05T02:41:51.839Z,7.57
2017-03-05T02:42:32.377Z,7.5
2017-03-05T02:43:12.925Z,7.55
2017-03-05T02:43:53.456Z,7.52
2017-03-05T02:44:33.996Z,7.58
2017-03-05T02:45:14.535Z,7.53
2017-03-05T02:45:55.072Z,7.58
2017-03-05T02:46:35.612Z,7.57
2017-03-05T02:47:16.155Z,7.58
2017-03-05T02:47:56.695Z,7.61
2017-03-05T02:48:37.229Z,7.58
2017-03-05T02:49:17.773Z,7.53
2017-03-05T02:49:58.310Z,7.6
2017-03-05T02:50:38.852Z,7.58
2017-03-05T02:51:19.393Z,7.58
2017-03-05T02:51:59.926Z,7.57
2017-03-05T02:52:40.464Z,7.58
2017-03-05T02:53:21.010Z,7.57
2017-03-05T02:54:01.552Z,7.61
2017-03-05T02:54:42.087Z,7.57
2017-03-05T02:55:22.626Z,7.6
2017-03-05T02:56:03.169Z,7.67
2017-03-05T02:56:43.704Z,7.71
2017-03-05T02:57:24.255Z,7.64
2017-03-05T02:58:04.794Z,7.6
2017-03-05T02:58:45.332Z,7.71
2017-03-05T02:59:25.878Z,7.64
2017-03-05T03:00:06.412Z,7.68
2017-03-05T03:00:46.970Z,7.64
2017-03-05T03:01:27.518Z,7.67
2017-03-05T03:02:08.056Z,7.71
2017-03-05T03:02:48.600Z,7.68
2017-03-05T03:03:29.152Z,7.64
2017-03-05T03:04:09.700Z,7.67
2017-03-05T03:04:50.232Z,7.67
2017-03-05T03:05:30.775Z,7.68
2017-03-05T03:06:11.314Z,7.67
2017-03-05T03:06:51.849Z,7.72
2017-03-05T03:07:32.391Z,7.69
2017-03-05T03:08:12.933Z,7.69
2017-03-05T03:08:53.476Z,7.69
2017-03-05T03:09:34.007Z,7.71
2017-03-05T03:10:14.553Z,7.69
2017-03-05T03:10:55.106Z,7.71
2017-03-05T03:11:35.652Z,7.71
2017-03-05T03:12:16.190Z,7.69
2017-03-05T03:12:56.733Z,7.68
2017-03-05T03:13:37.272Z,7.69
2017-03-05T03:14:17.817Z,7.72
2017-03-05T03:14:58.348Z,7.72
2017-03-05T03:15:38.886Z,7.71
2017-03-05T03:16:19.431Z,7.71
2017-03-05T03:16:59.967Z,7.72
2017-03-05T03:17:40.527Z,7.68
2017-03-05T03:18:21.065Z,7.68
2017-03-05T03:19:01.616Z,7.72
2017-03-05T03:19:42.166Z,7.71
2017-03-05T03:20:22.714Z,7.75
2017-03-05T03:21:03.266Z,7.72
2017-03-05T03:21:43.813Z,7.79
2017-03-05T03:22:24.351Z,7.69
2017-03-05T03:23:04.892Z,7.69
2017-03-05T03:23:45.436Z,7.68
2017-03-05T03:24:25.973Z,7.74
2017-03-05T03:25:06.508Z,7.72
2017-03-05T03:25:47.038Z,7.69
2017-03-05T03:26:27.585Z,7.68
2017-03-05T03:27:08.115Z,7.72
2017-03-05T03:27:48.647Z,7.69
2017-03-05T03:28:29.180Z,7.75
2017-03-05T03:29:09.710Z,7.71
2017-03-05T03:29:50.239Z,7.67
2017-03-05T03:30:30.769Z,7.71
2017-03-05T03:31:11.294Z,7.74
2017-03-05T03:31:51.825Z,7.64
2017-03-05T03:32:32.355Z,7.67
2017-03-05T03:33:12.893Z,7.75
2017-03-05T03:33:53.422Z,7.77
2017-03-05T03:34:33.954Z,7.67
2017-03-05T03:35:14.485Z,7.72
2017-03-05T03:35:55.013Z,7.71
2017-03-05T03:36:35.548Z,7.72
2017-03-05T03:37:16.077Z,7.74
2017-03-05T03:37:56.608Z,7.71
2017-03-05T03:38:37.144Z,7.67
2017-03-05T03:39:17.669Z,7.74
2017-03-05T03:39:58.195Z,7.77
2017-03-05T03:40:38.733Z,7.82
2017-03-05T03:41:19.261Z,7.77
2017-03-05T03:41:59.794Z,7.77
2017-03-05T03:42:40.378Z,7.79
2017-03-05T03:43:20.912Z,7.79
2017-03-05T03:44:01.454Z,7.74
2017-03-05T03:44:41.988Z,7.77
2017-03-05T03:45:22.519Z,7.83
2017-03-05T03:46:03.052Z,7.8
2017-03-05T03:46:43.589Z,7.86
2017-03-05T03:47:24.128Z,7.82
2017-03-05T03:48:04.659Z,7.87
2017-03-05T03:48:45.196Z,7.83
2017-03-05T03:49:25.725Z,7.89
2017-03-05T03:50:06.257Z,7.87
2017-03-05T03:50:46.786Z,7.85
2017-03-05T03:51:27.317Z,7.85
2017-03-05T03:52:07.851Z,7.79
2017-03-05T03:52:48.380Z,7.89
2017-03-05T03:53:28.921Z,7.86
2017-03-05T03:54:09.455Z,7.87
2017-03-05T03:54:49.986Z,7.82
2017-03-05T03:55:30.517Z,7.87
2017-03-05T03:56:11.045Z,7.82
2017-03-05T03:56:51.617Z,7.87
2017-03-05T03:57:32.143Z,7.8
2017-03-05T03:58:12.663Z,7.79
2017-03-05T03:58:53.197Z,7.79
2017-03-05T03:59:33.735Z,7.86
2017-03-05T04:00:14.268Z,7.89
2017-03-05T04:00:54.799Z,7.87
2017-03-05T04:01:35.324Z,7.83
2017-03-05T04:02:15.862Z,7.75
2017-03-05T04:02:56.395Z,7.93
2017-03-05T04:03:36.927Z,7.79
2017-03-05T04:04:17.467Z,7.77
2017-03-05T04:04:58.001Z,7.82
2017-03-05T04:05:38.536Z,7.85
2017-03-05T04:06:19.078Z,7.85
2017-03-05T04:06:59.600Z,7.9
2017-03-05T04:07:40.128Z,7.82
2017-03-05T04:08:20.663Z,7.89
2017-03-05T04:09:01.198Z,7.77
2017-03-05T04:09:41.724Z,7.77
2017-03-05T04:10:22.260Z,7.77
2017-03-05T04:11:02.793Z,7.8
2017-03-05T04:11:43.326Z,7.83
2017-03-05T04:12:23.846Z,7.8
2017-03-05T04:13:04.381Z,7.79
2017-03-05T04:13:44.912Z,7.75
2017-03-05T04:14:25.445Z,7.8
2017-03-05T04:15:05.976Z,7.79
2017-03-05T04:15:46.513Z,7.75
2017-03-05T04:16:27.041Z,7.79
2017-03-05T04:17:07.572Z,7.74
2017-03-05T04:17:48.098Z,7.75
2017-03-05T04:18:28.619Z,7.77
2017-03-05T04:19:09.144Z,7.71
2017-03-05T04:19:49.678Z,7.74
2017-03-05T04:20:30.213Z,7.75
2017-03-05T04:21:10.749Z,7.75
2017-03-05T04:21:51.280Z,7.71
2017-03-05T04:22:31.811Z,7.72
2017-03-05T04:23:12.336Z,7.69
2017-03-05T04:23:52.872Z,7.69
2017-03-05T04:24:33.401Z,7.69
2017-03-05T04:25:13.936Z,7.69
2017-03-05T04:25:54.474Z,7.61
2017-03-05T04:26:35.002Z,7.68
2017-03-05T04:27:15.528Z,7.58
2017-03-05T04:27:56.067Z,7.58
2017-03-05T04:28:36.606Z,7.6
2017-03-05T04:29:17.138Z,7.53
2017-03-05T04:29:57.677Z,7.53
2017-03-05T04:30:38.201Z,7.52
2017-03-05T04:31:18.739Z,7.52
2017-03-05T04:31:59.271Z,7.49
2017-03-05T04:32:39.853Z,7.46
2017-03-05T04:33:20.384Z,7.34
2017-03-05T04:34:00.913Z,7.39
2017-03-05T04:34:41.447Z,7.46
2017-03-05T04:35:21.980Z,7.49
2017-03-05T04:36:02.512Z,7.39
2017-03-05T04:36:43.040Z,7.4
2017-03-05T04:37:23.569Z,7.31
2017-03-05T04:38:04.099Z,7.3
2017-03-05T04:38:44.625Z,7.3
2017-03-05T04:39:25.155Z,7.3
2017-03-05T04:40:05.692Z,7.25
2017-03-05T04:40:46.221Z,7.32
2017-03-05T04:41:26.755Z,7.21
2017-03-05T04:42:07.363Z,7.25
2017-03-05T04:42:47.926Z,7.2
2017-03-05T04:43:28.455Z,7.27
2017-03-05T04:44:08.991Z,7.21
2017-03-05T04:44:49.528Z,7.25
2017-03-05T04:45:30.056Z,7.23
2017-03-05T04:46:10.580Z,7.2
2017-03-05T04:46:51.112Z,7.28
2017-03-05T04:47:31.641Z,7.17
2017-03-05T04:48:12.176Z,7.17
2017-03-05T04:48:52.706Z,7.24
2017-03-05T04:49:33.232Z,7.24
2017-03-05T04:50:13.770Z,7.24
2017-03-05T04:50:54.295Z,7.13
2017-03-05T04:51:34.822Z,7.21
2017-03-05T04:52:15.356Z,7.2
2017-03-05T04:52:55.890Z,7.12
2017-03-05T04:53:36.417Z,7.2
2017-03-05T04:54:16.948Z,7.21
2017-03-05T04:54:57.506Z,7.25
2017-03-05T04:55:38.254Z,7.17
2017-03-05T04:56:18.855Z,7.1
2017-03-05T04:56:59.389Z,7.16
2017-03-05T04:57:39.922Z,7.15
2017-03-05T04:58:20.482Z,7.16
2017-03-05T04:59:01.014Z,7.24
2017-03-05T04:59:41.549Z,7.17
2017-03-05T05:00:22.085Z,7.21
2017-03-05T05:01:02.618Z,7.17
2017-03-05T05:01:43.149Z,7.25
2017-03-05T05:02:23.681Z,7.2
2017-03-05T05:03:04.215Z,7.24
2017-03-05T05:03:44.752Z,7.12
2017-03-05T05:04:25.288Z,7.17
2017-03-05T05:05:05.817Z,7.17
2017-03-05T05:05:46.372Z,7.06
2017-03-05T05:06:26.906Z,7.16
2017-03-05T05:07:07.437Z,7.13
2017-03-05T05:07:47.977Z,7.16
2017-03-05T05:08:28.514Z,7.15
2017-03-05T05:09:09.046Z,7.21
2017-03-05T05:09:49.584Z,7.17
2017-03-05T05:10:30.117Z,7.21
2017-03-05T05:11:10.648Z,7.16
2017-03-05T05:11:51.210Z,7.13
2017-03-05T05:12:31.757Z,7.15
2017-03-05T05:13:12.381Z,7.15
2017-03-05T05:13:52.925Z,7.1
2017-03-05T05:14:33.449Z,7.1
2017-03-05T05:15:13.978Z,7.15
2017-03-05T05:15:54.512Z,7.06
2017-03-05T05:16:35.038Z,7.06
2017-03-05T05:17:15.572Z,7.09
2017-03-05T05:17:56.108Z,6.99
2017-03-05T05:18:36.680Z,7.09
2017-03-05T05:19:17.212Z,7.09
2017-03-05T05:19:57.757Z,7.06
2017-03-05T05:20:38.285Z,7.09
2017-03-05T05:21:18.818Z,7.09
2017-03-05T05:21:59.349Z,6.97
2017-03-05T05:22:39.881Z,6.97
2017-03-05T05:23:20.416Z,7.02
2017-03-05T05:24:00.963Z,6.95
2017-03-05T05:24:41.495Z,6.94
2017-03-05T05:25:22.030Z,6.99
2017-03-05T05:26:02.564Z,6.98
2017-03-05T05:26:43.096Z,6.92
2017-03-05T05:27:23.632Z,6.97
2017-03-05T05:28:04.166Z,6.98
2017-03-05T05:28:44.705Z,6.95
2017-03-05T05:29:25.238Z,6.89
2017-03-05T05:30:05.777Z,6.87
2017-03-05T05:30:46.315Z,6.87
2017-03-05T05:31:26.847Z,6.89
2017-03-05T05:32:07.410Z,6.88
2017-03-05T05:32:47.946Z,6.79
2017-03-05T05:33:28.557Z,6.85
2017-03-05T05:34:09.132Z,6.92
2017-03-05T05:34:49.670Z,6.87
2017-03-05T05:35:30.206Z,6.84
2017-03-05T05:36:10.747Z,6.87
2017-03-05T05:36:51.379Z,6.88
2017-03-05T05:37:31.909Z,6.85
2017-03-05T05:38:12.458Z,6.81
2017-03-05T05:38:53.002Z,6.84
2017-03-05T05:39:33.525Z,6.88
2017-03-05T05:40:14.120Z,6.85
2017-03-05T05:40:54.656Z,6.85
2017-03-05T05:41:35.183Z,6.95
2017-03-05T05:42:15.720Z,6.84
2017-03-05T05:42:56.255Z,6.87
2017-03-05T05:43:36.789Z,6.89
2017-03-05T05:44:17.323Z,6.91
2017-03-05T05:44:57.908Z,6.92
2017-03-05T05:45:38.443Z,6.95
2017-03-05T05:46:19.088Z,6.98
2017-03-05T05:46:59.685Z,6.92
2017-03-05T05:47:40.221Z,6.91
2017-03-05T05:48:20.752Z,6.95
2017-03-05T05:49:01.282Z,6.88
2017-03-05T05:49:41.815Z,6.88
2017-03-05T05:50:22.438Z,6.88
2017-03-05T05:51:02.895Z,6.84
2017-03-05T05:51:43.432Z,6.88
2017-03-05T05:52:23.969Z,6.98
2017-03-05T05:53:04.506Z,6.85
2017-03-05T05:53:45.037Z,6.8
2017-03-05T05:54:25.577Z,6.87
2017-03-05T05:55:06.113Z,6.87
2017-03-05T05:55:46.644Z,6.88
2017-03-05T05:56:27.177Z,6.81
2017-03-05T05:57:07.715Z,6.91
2017-03-05T05:57:48.244Z,6.87
2017-03-05T05:58:28.827Z,6.91
2017-03-05T05:59:09.359Z,6.77
2017-03-05T05:59:49.900Z,6.79
2017-03-05T06:00:30.432Z,6.79
2017-03-05T06:01:10.962Z,6.85
2017-03-05T06:01:51.498Z,6.7
2017-03-05T06:02:32.034Z,6.79
2017-03-05T06:03:12.596Z,6.79
2017-03-05T06:03:53.103Z,6.71
2017-03-05T06:04:33.635Z,6.77
2017-03-05T06:05:14.163Z,6.76
2017-03-05T06:05:54.701Z,6.74
2017-03-05T06:06:35.234Z,6.79
2017-03-05T06:07:15.771Z,6.74
2017-03-05T06:07:56.299Z,6.74
2017-03-05T06:08:36.830Z,6.64
2017-03-05T06:09:17.357Z,6.61
2017-03-05T06:09:57.888Z,6.62
2017-03-05T06:10:38.416Z,6.62
2017-03-05T06:11:18.936Z,6.64
2017-03-05T06:11:59.468Z,6.58
2017-03-05T06:12:40.005Z,6.64
2017-03-05T06:13:20.544Z,6.59
2017-03-05T06:14:01.086Z,6.59
2017-03-05T06:14:41.828Z,6.58
2017-03-05T06:15:22.357Z,6.56
2017-03-05T06:16:02.889Z,6.58
2017-03-05T06:16:43.426Z,6.61
2017-03-05T06:17:23.969Z,6.61
2017-03-05T06:18:04.502Z,6.66
2017-03-05T06:18:45.038Z,6.62
2017-03-05T06:19:25.565Z,6.61
2017-03-05T06:20:06.091Z,6.64
2017-03-05T06:20:46.640Z,6.64
2017-03-05T06:21:27.176Z,6.64
2017-03-05T06:22:07.718Z,6.7
2017-03-05T06:22:48.421Z,6.67
2017-03-05T06:23:28.954Z,6.69
2017-03-05T06:24:09.517Z,6.74
2017-03-05T06:24:50.034Z,6.71
2017-03-05T06:25:30.655Z,6.77
2017-03-05T06:26:11.187Z,6.79
2017-03-05T06:26:51.720Z,6.71
2017-03-05T06:27:32.253Z,6.71
2017-03-05T06:28:12.790Z,6.74
2017-03-05T06:28:53.437Z,6.71
2017-03-05T06:29:34.109Z,6.76
2017-03-05T06:30:14.671Z,6.87
2017-03-05T06:30:55.212Z,6.79
2017-03-05T06:31:35.740Z,6.8
2017-03-05T06:32:16.268Z,6.85
2017-03-05T06:32:56.815Z,6.88
2017-03-05T06:33:37.486Z,6.97
2017-03-05T06:34:18.019Z,6.95
2017-03-05T06:34:58.554Z,7.03
2017-03-05T06:35:39.284Z,6.95
2017-03-05T06:36:19.827Z,7.03
2017-03-05T06:37:00.355Z,7.09
2017-03-05T06:37:40.890Z,7.03
2017-03-05T06:38:21.427Z,7.1
2017-03-05T06:39:01.944Z,7.1
2017-03-05T06:39:42.473Z,7.12
2017-03-05T06:40:23.015Z,7.17
2017-03-05T06:41:03.552Z,7.2
2017-03-05T06:41:44.089Z,7.13
2017-03-05T06:42:24.622Z,7.27
2017-03-05T06:43:05.156Z,7.2
2017-03-05T06:43:45.689Z,7.21
2017-03-05T06:44:26.233Z,7.1
2017-03-05T06:45:06.770Z,7.25
2017-03-05T06:45:47.311Z,7.09
2017-03-05T06:46:28.455Z,7.15
2017-03-05T06:47:10.238Z,7.23
2017-03-05T06:47:52.581Z,7.13
2017-03-05T06:48:33.136Z,7.2
2017-03-05T06:49:13.667Z,7.17
2017-03-05T06:49:54.184Z,7.2
2017-03-05T06:50:34.704Z,7.16
2017-03-05T06:51:15.283Z,7.24
2017-03-05T06:52:13.810Z,7.28
2017-03-05T06:52:54.343Z,7.27
2017-03-05T06:53:35.257Z,7.23
2017-03-05T06:54:18.057Z,7.32
2017-03-05T06:55:00.789Z,7.3
2017-03-05T06:55:44.303Z,7.21
2017-03-05T06:56:26.595Z,7.23
2017-03-05T06:57:09.315Z,7.27
2017-03-05T06:57:51.849Z,7.34
2017-03-05T06:58:35.043Z,7.3
2017-03-05T06:59:16.214Z,7.3
2017-03-05T06:59:56.773Z,7.35
2017-03-05T07:00:37.299Z,7.3
2017-03-05T07:01:17.833Z,7.45
2017-03-05T07:01:58.369Z,7.28
2017-03-05T07:02:38.903Z,7.35
2017-03-05T07:03:19.441Z,7.48
2017-03-05T07:03:59.979Z,7.48
2017-03-05T07:04:40.516Z,7.35
2017-03-05T07:05:21.049Z,7.39
2017-03-05T07:06:01.585Z,7.5
2017-03-05T07:06:42.122Z,7.52
2017-03-05T07:07:22.657Z,7.55
2017-03-05T07:08:03.196Z,7.5
2017-03-05T07:08:43.733Z,7.5
2017-03-05T07:09:24.267Z,7.52
2017-03-05T07:10:04.803Z,7.52
2017-03-05T07:10:47.376Z,7.53
2017-03-05T07:11:29.096Z,7.74
2017-03-05T07:12:12.495Z,7.58
2017-03-05T07:12:55.608Z,7.63
2017-03-05T07:14:34.419Z,7.72
2017-03-05T07:15:14.955Z,7.72
2017-03-05T07:15:55.497Z,7.68
2017-03-05T07:16:36.034Z,7.74
2017-03-05T07:17:16.570Z,7.8
2017-03-05T07:17:57.100Z,7.85
2017-03-05T07:18:37.672Z,7.85
2017-03-05T07:19:18.227Z,7.82
2017-03-05T07:19:58.753Z,7.87
2017-03-05T07:20:39.286Z,7.82
2017-03-05T07:21:19.826Z,7.8
2017-03-05T07:22:00.343Z,7.86
2017-03-05T07:22:41.968Z,7.89
2017-03-05T07:23:25.388Z,7.9
2017-03-05T07:24:09.179Z,7.89
2017-03-05T07:24:50.788Z,7.85
2017-03-05T07:25:32.459Z,7.89
2017-03-05T07:26:15.249Z,7.93
2017-03-05T07:26:58.333Z,7.9
2017-03-05T07:27:40.266Z,7.95
2017-03-05T07:28:22.068Z,7.93
2017-03-05T07:29:04.224Z,7.93
2017-03-05T07:29:47.487Z,7.98
2017-03-05T07:30:30.702Z,7.92
2017-03-05T07:31:12.528Z,7.9
2017-03-05T07:31:54.934Z,8.05
2017-03-05T07:32:35.491Z,7.9
2017-03-05T07:33:16.026Z,7.93
2017-03-05T07:33:56.556Z,7.98
2017-03-05T07:34:37.092Z,7.95
2017-03-05T07:35:17.612Z,7.92
2017-03-05T07:35:58.145Z,7.98
2017-03-05T07:36:38.684Z,7.98
2017-03-05T07:37:19.208Z,8.05
2017-03-05T07:37:59.730Z,8.04
2017-03-05T07:38:40.254Z,8.04
2017-03-05T07:39:20.783Z,8.02
2017-03-05T07:40:01.321Z,8.01
2017-03-05T07:40:41.860Z,8.1
2017-03-05T07:41:22.395Z,8.1
2017-03-05T07:42:02.925Z,8.1
2017-03-05T07:42:43.461Z,8.08
2017-03-05T07:43:23.983Z,8.18
2017-03-05T07:44:04.514Z,8.15
2017-03-05T07:44:45.053Z,8.23
2017-03-05T07:45:25.591Z,8.12
2017-03-05T07:46:06.124Z,8.23
2017-03-05T07:46:46.661Z,8.19
2017-03-05T07:47:27.194Z,8.22
2017-03-05T07:48:07.725Z,8.25
2017-03-05T07:48:48.255Z,8.26
2017-03-05T07:49:28.787Z,8.29
2017-03-05T07:50:09.322Z,8.26
2017-03-05T07:50:49.859Z,8.28
2017-03-05T07:51:30.392Z,8.3
2017-03-05T07:52:10.926Z,8.26
2017-03-05T07:52:51.467Z,8.29
2017-03-05T07:53:32.000Z,8.23
2017-03-05T07:54:12.533Z,8.23
2017-03-05T07:54:53.063Z,8.4
2017-03-05T07:55:33.598Z,8.45
2017-03-05T07:56:14.146Z,8.47
2017-03-05T07:56:54.664Z,8.45
2017-03-05T07:57:35.198Z,8.47
2017-03-05T07:58:15.740Z,8.53
2017-03-05T07:58:56.267Z,8.52
2017-03-05T07:59:36.810Z,8.48
2017-03-05T08:00:17.649Z,8.53
2017-03-05T08:01:01.187Z,8.52
2017-03-05T08:01:44.648Z,8.56
2017-03-05T08:02:27.339Z,8.71
2017-03-05T08:03:09.245Z,8.68
2017-03-05T08:03:51.623Z,8.65
2017-03-05T08:04:34.472Z,8.79
2017-03-05T08:05:18.188Z,8.71
2017-03-05T08:05:58.654Z,8.71
2017-03-05T08:06:39.177Z,8.66
2017-03-05T08:07:19.727Z,8.79
2017-03-05T08:08:00.546Z,8.84
2017-03-05T08:08:41.135Z,8.76
2017-03-05T08:09:22.430Z,8.74
2017-03-05T08:10:02.977Z,8.8
2017-03-05T08:10:43.513Z,8.79
2017-03-05T08:11:24.052Z,8.79
2017-03-05T08:12:04.597Z,8.81
2017-03-05T08:12:45.134Z,8.84
2017-03-05T08:13:25.690Z,8.86
2017-03-05T08:14:06.240Z,8.87
2017-03-05T08:14:46.757Z,8.89
2017-03-05T08:15:27.300Z,8.92
2017-03-05T08:16:07.927Z,8.91
2017-03-05T08:16:48.792Z,8.86
2017-03-05T08:17:30.318Z,8.87
2017-03-05T08:18:12.372Z,8.91
2017-03-05T08:18:52.933Z,8.89
2017-03-05T08:19:33.475Z,8.98
2017-03-05T08:20:14.008Z,9.11
2017-03-05T08:20:54.578Z,9.05
2017-03-05T08:21:35.111Z,9.24
2017-03-05T08:22:15.639Z,9.24
2017-03-05T08:22:56.177Z,9.23
2017-03-05T08:23:36.698Z,9.24
2017-03-05T08:24:17.230Z,9.26
2017-03-05T08:24:57.773Z,9.29
2017-03-05T08:25:38.323Z,9.28
2017-03-05T08:26:18.849Z,9.31
2017-03-05T08:26:59.383Z,9.35
2017-03-05T08:27:39.910Z,9.31
2017-03-05T08:28:20.440Z,9.47
2017-03-05T08:29:01.012Z,9.42
2017-03-05T08:29:41.538Z,9.48
2017-03-05T08:30:22.073Z,9.4
2017-03-05T08:31:02.616Z,9.4
2017-03-05T08:31:43.135Z,9.4
2017-03-05T08:32:23.760Z,9.43
2017-03-05T08:33:04.291Z,9.33
2017-03-05T08:33:44.821Z,9.32
2017-03-05T08:34:25.359Z,9.35
2017-03-05T08:35:06.692Z,9.35
2017-03-05T08:35:49.694Z,9.36
2017-03-05T08:37:29.041Z,9.32
2017-03-05T08:38:12.403Z,9.29
2017-03-05T08:38:56.264Z,9.33
2017-03-05T08:39:39.625Z,9.42
2017-03-05T08:40:22.814Z,9.32
2017-03-05T08:41:05.935Z,9.31
2017-03-05T08:41:49.409Z,9.33
2017-03-05T08:42:32.234Z,9.39
2017-03-05T08:43:12.895Z,9.4
2017-03-05T08:43:53.452Z,9.33
2017-03-05T08:44:33.973Z,9.35
2017-03-05T08:45:14.502Z,9.38
2017-03-05T08:45:55.046Z,9.35
2017-03-05T08:46:35.847Z,9.36
2017-03-05T08:47:16.378Z,9.33
2017-03-05T08:47:56.911Z,9.38
2017-03-05T08:48:37.436Z,9.46
2017-03-05T08:49:18.002Z,9.38
2017-03-05T08:49:58.531Z,9.39
2017-03-05T08:50:39.062Z,9.38
2017-03-05T08:51:19.583Z,9.46
2017-03-05T08:52:00.134Z,9.39
2017-03-05T08:52:40.672Z,9.42
2017-03-05T08:53:21.208Z,9.42
2017-03-05T08:54:01.744Z,9.39
2017-03-05T08:54:42.284Z,9.53
2017-03-05T08:55:22.826Z,9.51
2017-03-05T08:56:03.357Z,9.47
2017-03-05T08:56:43.887Z,9.53
2017-03-05T08:57:24.530Z,9.57
2017-03-05T08:58:05.087Z,9.51
2017-03-05T08:58:45.743Z,9.57
2017-03-05T08:59:26.279Z,9.56
2017-03-05T09:00:06.823Z,9.6
2017-03-05T09:00:47.355Z,9.57
2017-03-05T09:01:28.076Z,9.58
2017-03-05T09:02:08.607Z,9.66
2017-03-05T09:02:49.104Z,9.65
2017-03-05T09:03:29.635Z,9.71
2017-03-05T09:04:10.156Z,9.75
2017-03-05T09:04:50.690Z,9.66
2017-03-05T09:05:31.221Z,9.74
2017-03-05T09:06:11.753Z,9.76
2017-03-05T09:06:52.291Z,9.76
2017-03-05T09:07:32.819Z,9.75
2017-03-05T09:08:13.348Z,9.74
2017-03-05T09:08:53.887Z,9.79
2017-03-05T09:09:34.415Z,9.84
2017-03-05T09:10:15.019Z,9.9
2017-03-05T09:10:55.551Z,9.81
2017-03-05T09:11:36.084Z,9.87
2017-03-05T09:12:16.641Z,9.86
2017-03-05T09:12:57.192Z,9.83
2017-03-05T09:13:37.730Z,9.83
2017-03-05T09:14:18.268Z,9.87
2017-03-05T09:14:58.815Z,9.9
2017-03-05T09:15:39.823Z,9.83
2017-03-05T09:16:20.865Z,9.79
2017-03-05T09:17:02.011Z,9.91
2017-03-05T09:17:43.771Z,9.99
2017-03-05T09:18:26.000Z,9.93
2017-03-05T09:19:08.279Z,10.07
2017-03-05T09:19:50.665Z,10.11
2017-03-05T09:20:33.229Z,10.27
2017-03-05T09:21:14.904Z,10.29
2017-03-05T09:21:57.104Z,10.32
2017-03-05T09:22:38.620Z,10.42
2017-03-05T09:23:20.817Z,10.34
2017-03-05T09:24:03.142Z,10.33
2017-03-05T09:24:44.915Z,10.41
2017-03-05T09:25:27.293Z,10.42
2017-03-05T09:26:09.668Z,10.34
2017-03-05T09:26:51.856Z,10.25
2017-03-05T09:27:34.141Z,10.23
2017-03-05T09:28:16.825Z,10.22
2017-03-05T09:28:59.101Z,10.22
2017-03-05T09:29:41.122Z,10.33
2017-03-05T09:30:22.351Z,10.44
2017-03-05T09:31:04.446Z,10.44
2017-03-05T09:31:46.917Z,10.59
2017-03-05T09:32:28.890Z,10.53
2017-03-05T09:33:11.084Z,10.53
2017-03-05T09:33:53.376Z,10.52
2017-03-05T09:34:35.720Z,10.63